sensor_id;sensor_type;location;lat;lon;timestamp;temperature;humidity
42841;DHT22;28491;46.898;7.660;2022-12-26T00:01:19;3.60;99.90
42841;DHT22;28491;46.898;7.660;2022-12-26T00:03:44;3.50;99.90
42841;DHT22;28491;46.898;7.660;2022-12-26T00:06:15;3.40;99.90
42841;DHT22;28491;46.898;7.660;2022-12-26T00:08:42;3.40;99.90
42841;DHT22;28491;46.898;7.660;2022-12-26T00:11:08;3.30;99.90
42841;DHT22;28491;46.898;7.660;2022-12-26T00:13:34;3.20;99.90
42841;DHT22;28491;46.898;7.660;2022-12-26T00:18:32;3.20;99.90
42841;DHT22;28491;46.898;7.660;2022-12-26T00:20:58;3.30;99.90
42841;DHT22;28491;46.898;7.660;2022-12-26T00:23:23;3.20;99.90
42841;DHT22;28491;46.898;7.660;2022-12-26T00:25:49;3.10;99.90
42841;DHT22;28491;46.898;7.660;2022-12-26T00:28:14;3.20;99.90
42841;DHT22;28491;46.898;7.660;2022-12-26T00:30:40;3.20;99.90
42841;DHT22;28491;46.898;7.660;2022-12-26T00:33:06;3.10;99.90
42841;DHT22;28491;46.898;7.660;2022-12-26T00:35:31;3.30;99.90
42841;DHT22;28491;46.898;7.660;2022-12-26T00:37:57;3.30;99.90
42841;DHT22;28491;46.898;7.660;2022-12-26T00:40:22;3.40;99.90
42841;DHT22;28491;46.898;7.660;2022-12-26T00:42:48;3.30;99.90
42841;DHT22;28491;46.898;7.660;2022-12-26T00:45:13;3.20;99.90
42841;DHT22;28491;46.898;7.660;2022-12-26T00:47:39;3.20;99.90
42841;DHT22;28491;46.898;7.660;2022-12-26T00:50:05;3.30;99.90
42841;DHT22;28491;46.898;7.660;2022-12-26T00:52:31;3.30;99.90
42841;DHT22;28491;46.898;7.660;2022-12-26T00:54:56;3.10;99.90
42841;DHT22;28491;46.898;7.660;2022-12-26T00:57:22;3.10;99.90
42841;DHT22;28491;46.898;7.660;2022-12-26T00:59:47;3.20;99.90
42841;DHT22;28491;46.898;7.660;2022-12-26T01:02:13;3.30;99.90
42841;DHT22;28491;46.898;7.660;2022-12-26T01:04:57;3.40;99.90
42841;DHT22;28491;46.898;7.660;2022-12-26T01:07:22;3.30;99.90
42841;DHT22;28491;46.898;7.660;2022-12-26T01:09:48;3.20;99.90
42841;DHT22;28491;46.898;7.660;2022-12-26T01:12:13;3.20;99.90
42841;DHT22;28491;46.898;7.660;2022-12-26T01:14:39;3.40;99.90
42841;DHT22;28491;46.898;7.660;2022-12-26T01:17:04;3.30;99.90
42841;DHT22;28491;46.898;7.660;2022-12-26T01:19:30;3.40;99.90
42841;DHT22;28491;46.898;7.660;2022-12-26T01:21:55;3.30;99.90
42841;DHT22;28491;46.898;7.660;2022-12-26T01:24:21;3.30;99.90
42841;DHT22;28491;46.898;7.660;2022-12-26T01:26:46;3.50;99.90
42841;DHT22;28491;46.898;7.660;2022-12-26T01:29:12;3.50;99.90
42841;DHT22;28491;46.898;7.660;2022-12-26T01:31:38;3.40;99.90
42841;DHT22;28491;46.898;7.660;2022-12-26T01:34:03;3.50;99.90
42841;DHT22;28491;46.898;7.660;2022-12-26T01:36:29;3.60;99.90
42841;DHT22;28491;46.898;7.660;2022-12-26T01:38:54;3.50;99.90
42841;DHT22;28491;46.898;7.660;2022-12-26T01:41:20;3.50;99.90
42841;DHT22;28491;46.898;7.660;2022-12-26T01:43:57;3.50;99.90
42841;DHT22;28491;46.898;7.660;2022-12-26T01:46:43;3.50;99.90
42841;DHT22;28491;46.898;7.660;2022-12-26T01:49:19;3.50;99.90
42841;DHT22;28491;46.898;7.660;2022-12-26T01:51:52;3.50;99.90
42841;DHT22;28491;46.898;7.660;2022-12-26T01:54:19;3.50;99.90
42841;DHT22;28491;46.898;7.660;2022-12-26T01:56:46;3.50;99.90
42841;DHT22;28491;46.898;7.660;2022-12-26T01:59:23;3.70;99.90
42841;DHT22;28491;46.898;7.660;2022-12-26T02:01:51;3.60;99.90
42841;DHT22;28491;46.898;7.660;2022-12-26T02:04:21;3.70;99.90
42841;DHT22;28491;46.898;7.660;2022-12-26T02:07:06;3.70;99.90
42841;DHT22;28491;46.898;7.660;2022-12-26T02:09:32;3.60;99.90
42841;DHT22;28491;46.898;7.660;2022-12-26T02:12:03;3.60;99.90
42841;DHT22;28491;46.898;7.660;2022-12-26T02:14:31;3.50;99.90
42841;DHT22;28491;46.898;7.660;2022-12-26T02:16:57;3.40;99.90
42841;DHT22;28491;46.898;7.660;2022-12-26T02:20:38;3.30;99.90
42841;DHT22;28491;46.898;7.660;2022-12-26T02:25:10;3.30;99.90
42841;DHT22;28491;46.898;7.660;2022-12-26T02:30:43;3.30;99.90
42841;DHT22;28491;46.898;7.660;2022-12-26T02:33:23;3.20;99.90
42841;DHT22;28491;46.898;7.660;2022-12-26T02:38:54;3.30;99.90
42841;DHT22;28491;46.898;7.660;2022-12-26T02:41:34;3.40;99.90
42841;DHT22;28491;46.898;7.660;2022-12-26T02:47:29;3.20;99.90
42841;DHT22;28491;46.898;7.660;2022-12-26T02:50:02;3.20;99.90
42841;DHT22;28491;46.898;7.660;2022-12-26T02:53:26;3.10;99.90
42841;DHT22;28491;46.898;7.660;2022-12-26T02:56:19;3.20;99.90
42841;DHT22;28491;46.898;7.660;2022-12-26T03:05:13;3.00;99.90
42841;DHT22;28491;46.898;7.660;2022-12-26T03:08:00;3.00;99.90
42841;DHT22;28491;46.898;7.660;2022-12-26T03:10:45;3.00;99.90
42841;DHT22;28491;46.898;7.660;2022-12-26T03:13:32;2.90;99.90
42841;DHT22;28491;46.898;7.660;2022-12-26T03:16:04;2.90;99.90
42841;DHT22;28491;46.898;7.660;2022-12-26T03:18:53;2.90;99.90
42841;DHT22;28491;46.898;7.660;2022-12-26T03:21:23;2.80;99.90
42841;DHT22;28491;46.898;7.660;2022-12-26T03:23:50;2.80;99.90
42841;DHT22;28491;46.898;7.660;2022-12-26T03:26:21;2.80;99.90
42841;DHT22;28491;46.898;7.660;2022-12-26T03:29:15;2.80;99.90
42841;DHT22;28491;46.898;7.660;2022-12-26T03:32:01;2.90;99.90
42841;DHT22;28491;46.898;7.660;2022-12-26T03:34:28;2.90;99.90
42841;DHT22;28491;46.898;7.660;2022-12-26T03:37:33;3.00;99.90
42841;DHT22;28491;46.898;7.660;2022-12-26T03:43:55;3.00;99.90
42841;DHT22;28491;46.898;7.660;2022-12-26T03:49:20;3.20;99.90
42841;DHT22;28491;46.898;7.660;2022-12-26T03:52:13;3.10;99.90
42841;DHT22;28491;46.898;7.660;2022-12-26T03:55:03;2.90;99.90
42841;DHT22;28491;46.898;7.660;2022-12-26T04:01:00;2.90;99.90
42841;DHT22;28491;46.898;7.660;2022-12-26T04:03:48;2.80;99.90
42841;DHT22;28491;46.898;7.660;2022-12-26T04:06:45;2.80;99.90
42841;DHT22;28491;46.898;7.660;2022-12-26T04:09:45;2.90;99.90
42841;DHT22;28491;46.898;7.660;2022-12-26T04:12:32;2.70;99.90
42841;DHT22;28491;46.898;7.660;2022-12-26T04:15:27;2.60;99.90
42841;DHT22;28491;46.898;7.660;2022-12-26T04:18:19;2.60;99.90
42841;DHT22;28491;46.898;7.660;2022-12-26T04:21:20;2.60;99.90
42841;DHT22;28491;46.898;7.660;2022-12-26T04:24:11;2.60;99.90
42841;DHT22;28491;46.898;7.660;2022-12-26T04:27:00;2.60;99.90
42841;DHT22;28491;46.898;7.660;2022-12-26T04:29:46;2.70;99.90
42841;DHT22;28491;46.898;7.660;2022-12-26T04:32:34;2.70;99.90
42841;DHT22;28491;46.898;7.660;2022-12-26T04:35:47;2.60;99.90
42841;DHT22;28491;46.898;7.660;2022-12-26T04:38:29;2.50;99.90
42841;DHT22;28491;46.898;7.660;2022-12-26T04:41:18;2.60;99.90
42841;DHT22;28491;46.898;7.660;2022-12-26T04:44:04;2.60;99.90
42841;DHT22;28491;46.898;7.660;2022-12-26T04:46:40;2.70;99.90
42841;DHT22;28491;46.898;7.660;2022-12-26T04:49:09;2.60;99.90
42841;DHT22;28491;46.898;7.660;2022-12-26T04:51:55;2.80;99.90
42841;DHT22;28491;46.898;7.660;2022-12-26T04:54:21;3.00;99.90
42841;DHT22;28491;46.898;7.660;2022-12-26T04:56:47;2.90;99.90
42841;DHT22;28491;46.898;7.660;2022-12-26T04:59:13;2.90;99.90
42841;DHT22;28491;46.898;7.660;2022-12-26T05:01:38;3.00;99.90
42841;DHT22;28491;46.898;7.660;2022-12-26T05:04:22;3.00;99.90
42841;DHT22;28491;46.898;7.660;2022-12-26T05:07:15;3.20;99.90
42841;DHT22;28491;46.898;7.660;2022-12-26T05:10:01;3.30;99.90
42841;DHT22;28491;46.898;7.660;2022-12-26T05:12:27;3.30;99.90
42841;DHT22;28491;46.898;7.660;2022-12-26T05:14:53;3.30;99.90
42841;DHT22;28491;46.898;7.660;2022-12-26T05:17:19;3.40;99.90
42841;DHT22;28491;46.898;7.660;2022-12-26T05:20:10;3.40;99.90
42841;DHT22;28491;46.898;7.660;2022-12-26T05:22:55;3.50;99.90
42841;DHT22;28491;46.898;7.660;2022-12-26T05:25:41;3.50;99.90
42841;DHT22;28491;46.898;7.660;2022-12-26T05:28:26;3.50;99.90
42841;DHT22;28491;46.898;7.660;2022-12-26T05:31:12;3.60;99.90
42841;DHT22;28491;46.898;7.660;2022-12-26T05:33:38;3.60;99.90
42841;DHT22;28491;46.898;7.660;2022-12-26T05:36:24;3.60;99.90
42841;DHT22;28491;46.898;7.660;2022-12-26T05:38:52;3.60;99.90
42841;DHT22;28491;46.898;7.660;2022-12-26T05:41:17;3.60;99.90
42841;DHT22;28491;46.898;7.660;2022-12-26T05:43:43;3.60;99.90
42841;DHT22;28491;46.898;7.660;2022-12-26T05:46:08;3.60;99.90
42841;DHT22;28491;46.898;7.660;2022-12-26T05:48:34;3.60;99.90
42841;DHT22;28491;46.898;7.660;2022-12-26T05:51:01;3.70;99.90
42841;DHT22;28491;46.898;7.660;2022-12-26T05:53:28;3.60;99.90
42841;DHT22;28491;46.898;7.660;2022-12-26T05:55:54;3.70;99.90
42841;DHT22;28491;46.898;7.660;2022-12-26T05:58:19;3.60;99.90
42841;DHT22;28491;46.898;7.660;2022-12-26T06:00:45;3.50;99.90
42841;DHT22;28491;46.898;7.660;2022-12-26T06:03:10;3.50;99.90
42841;DHT22;28491;46.898;7.660;2022-12-26T06:05:36;3.50;99.90
42841;DHT22;28491;46.898;7.660;2022-12-26T06:08:02;3.50;99.90
42841;DHT22;28491;46.898;7.660;2022-12-26T06:10:27;3.50;99.90
42841;DHT22;28491;46.898;7.660;2022-12-26T06:12:58;3.50;99.90
42841;DHT22;28491;46.898;7.660;2022-12-26T06:15:24;3.40;99.90
42841;DHT22;28491;46.898;7.660;2022-12-26T06:17:49;3.30;99.90
42841;DHT22;28491;46.898;7.660;2022-12-26T06:20:15;3.30;99.90
42841;DHT22;28491;46.898;7.660;2022-12-26T06:22:40;3.30;99.90
42841;DHT22;28491;46.898;7.660;2022-12-26T06:25:06;3.30;99.90
42841;DHT22;28491;46.898;7.660;2022-12-26T06:27:32;3.40;99.90
42841;DHT22;28491;46.898;7.660;2022-12-26T06:29:58;3.40;99.90
42841;DHT22;28491;46.898;7.660;2022-12-26T06:32:23;3.50;99.90
42841;DHT22;28491;46.898;7.660;2022-12-26T06:34:49;3.50;99.90
42841;DHT22;28491;46.898;7.660;2022-12-26T06:37:14;3.40;99.90
42841;DHT22;28491;46.898;7.660;2022-12-26T06:39:40;3.50;99.90
42841;DHT22;28491;46.898;7.660;2022-12-26T06:42:05;3.40;99.90
42841;DHT22;28491;46.898;7.660;2022-12-26T06:44:31;3.40;99.90
42841;DHT22;28491;46.898;7.660;2022-12-26T06:46:56;3.40;99.90
42841;DHT22;28491;46.898;7.660;2022-12-26T06:49:22;3.40;99.90
42841;DHT22;28491;46.898;7.660;2022-12-26T06:51:50;3.40;99.90
42841;DHT22;28491;46.898;7.660;2022-12-26T06:54:16;3.30;99.90
42841;DHT22;28491;46.898;7.660;2022-12-26T06:56:41;3.30;99.90
42841;DHT22;28491;46.898;7.660;2022-12-26T06:59:08;3.30;99.90
42841;DHT22;28491;46.898;7.660;2022-12-26T07:01:34;3.30;99.90
42841;DHT22;28491;46.898;7.660;2022-12-26T07:04:00;3.20;99.90
42841;DHT22;28491;46.898;7.660;2022-12-26T07:06:31;3.20;99.90
42841;DHT22;28491;46.898;7.660;2022-12-26T07:09:03;3.20;99.90
42841;DHT22;28491;46.898;7.660;2022-12-26T07:11:32;3.00;99.90
42841;DHT22;28491;46.898;7.660;2022-12-26T07:13:57;3.10;99.90
42841;DHT22;28491;46.898;7.660;2022-12-26T07:16:24;3.00;99.90
42841;DHT22;28491;46.898;7.660;2022-12-26T07:18:53;3.00;99.90
42841;DHT22;28491;46.898;7.660;2022-12-26T07:21:19;2.90;99.90
42841;DHT22;28491;46.898;7.660;2022-12-26T07:23:45;3.00;99.90
42841;DHT22;28491;46.898;7.660;2022-12-26T07:26:10;3.00;99.90
42841;DHT22;28491;46.898;7.660;2022-12-26T07:28:36;3.10;99.90
42841;DHT22;28491;46.898;7.660;2022-12-26T07:31:02;3.10;99.90
42841;DHT22;28491;46.898;7.660;2022-12-26T07:33:28;3.10;99.90
42841;DHT22;28491;46.898;7.660;2022-12-26T07:35:59;3.00;99.90
42841;DHT22;28491;46.898;7.660;2022-12-26T07:38:24;3.10;99.90
42841;DHT22;28491;46.898;7.660;2022-12-26T07:40:50;3.10;99.90
42841;DHT22;28491;46.898;7.660;2022-12-26T07:43:15;3.20;99.90
42841;DHT22;28491;46.898;7.660;2022-12-26T07:45:41;3.40;99.90
42841;DHT22;28491;46.898;7.660;2022-12-26T07:48:06;3.40;99.90
42841;DHT22;28491;46.898;7.660;2022-12-26T07:50:32;3.50;99.90
42841;DHT22;28491;46.898;7.660;2022-12-26T07:52:58;3.50;99.90
42841;DHT22;28491;46.898;7.660;2022-12-26T07:55:23;3.50;99.90
42841;DHT22;28491;46.898;7.660;2022-12-26T07:57:50;3.60;99.90
42841;DHT22;28491;46.898;7.660;2022-12-26T08:00:16;3.70;99.90
42841;DHT22;28491;46.898;7.660;2022-12-26T08:02:43;3.70;99.90
42841;DHT22;28491;46.898;7.660;2022-12-26T08:05:08;3.80;99.90
42841;DHT22;28491;46.898;7.660;2022-12-26T08:07:34;3.90;99.90
42841;DHT22;28491;46.898;7.660;2022-12-26T08:09:59;4.50;99.90
42841;DHT22;28491;46.898;7.660;2022-12-26T08:12:25;5.60;99.90
42841;DHT22;28491;46.898;7.660;2022-12-26T08:14:51;6.20;99.90
42841;DHT22;28491;46.898;7.660;2022-12-26T08:17:17;6.20;99.90
42841;DHT22;28491;46.898;7.660;2022-12-26T08:19:43;6.10;97.00
42841;DHT22;28491;46.898;7.660;2022-12-26T08:22:09;5.70;96.60
42841;DHT22;28491;46.898;7.660;2022-12-26T08:24:34;5.30;96.70
42841;DHT22;28491;46.898;7.660;2022-12-26T08:27:00;5.00;98.00
42841;DHT22;28491;46.898;7.660;2022-12-26T08:29:25;4.90;99.30
42841;DHT22;28491;46.898;7.660;2022-12-26T08:31:51;4.80;99.70
42841;DHT22;28491;46.898;7.660;2022-12-26T08:34:17;4.70;99.90
42841;DHT22;28491;46.898;7.660;2022-12-26T08:36:43;4.70;99.90
42841;DHT22;28491;46.898;7.660;2022-12-26T08:39:08;4.50;99.90
42841;DHT22;28491;46.898;7.660;2022-12-26T08:41:34;4.50;99.90
42841;DHT22;28491;46.898;7.660;2022-12-26T08:43:59;4.50;99.90
42841;DHT22;28491;46.898;7.660;2022-12-26T08:46:25;4.50;99.90
42841;DHT22;28491;46.898;7.660;2022-12-26T08:48:50;4.60;99.90
42841;DHT22;28491;46.898;7.660;2022-12-26T08:51:22;4.70;99.90
42841;DHT22;28491;46.898;7.660;2022-12-26T08:53:49;4.80;99.90
42841;DHT22;28491;46.898;7.660;2022-12-26T08:56:20;4.90;99.90
42841;DHT22;28491;46.898;7.660;2022-12-26T08:58:46;5.00;99.90
42841;DHT22;28491;46.898;7.660;2022-12-26T09:01:18;5.00;99.90
42841;DHT22;28491;46.898;7.660;2022-12-26T09:03:44;5.00;99.90
42841;DHT22;28491;46.898;7.660;2022-12-26T09:06:11;5.00;99.90
42841;DHT22;28491;46.898;7.660;2022-12-26T09:08:37;5.00;99.90
42841;DHT22;28491;46.898;7.660;2022-12-26T09:11:10;5.10;99.90
42841;DHT22;28491;46.898;7.660;2022-12-26T09:13:36;5.30;99.90
42841;DHT22;28491;46.898;7.660;2022-12-26T09:16:13;5.30;99.90
42841;DHT22;28491;46.898;7.660;2022-12-26T09:18:39;5.30;99.90
42841;DHT22;28491;46.898;7.660;2022-12-26T09:21:07;5.40;99.90
42841;DHT22;28491;46.898;7.660;2022-12-26T09:23:34;5.50;99.90
42841;DHT22;28491;46.898;7.660;2022-12-26T09:26:07;5.50;99.90
42841;DHT22;28491;46.898;7.660;2022-12-26T09:28:33;5.40;99.90
42841;DHT22;28491;46.898;7.660;2022-12-26T09:31:00;5.40;99.90
42841;DHT22;28491;46.898;7.660;2022-12-26T09:33:27;5.50;99.90
42841;DHT22;28491;46.898;7.660;2022-12-26T09:35:52;5.50;99.90
42841;DHT22;28491;46.898;7.660;2022-12-26T09:38:18;5.60;99.90
42841;DHT22;28491;46.898;7.660;2022-12-26T09:46:57;5.60;99.90
42841;DHT22;28491;46.898;7.660;2022-12-26T09:49:35;5.60;99.90
42841;DHT22;28491;46.898;7.660;2022-12-26T09:52:09;5.70;99.90
42841;DHT22;28491;46.898;7.660;2022-12-26T09:54:41;5.60;99.90
42841;DHT22;28491;46.898;7.660;2022-12-26T09:57:14;5.70;99.90
42841;DHT22;28491;46.898;7.660;2022-12-26T09:59:53;5.80;99.90
42841;DHT22;28491;46.898;7.660;2022-12-26T10:02:21;5.90;99.90
42841;DHT22;28491;46.898;7.660;2022-12-26T10:04:48;6.00;99.90
42841;DHT22;28491;46.898;7.660;2022-12-26T10:12:20;6.00;99.90
42841;DHT22;28491;46.898;7.660;2022-12-26T10:15:02;6.00;99.90
42841;DHT22;28491;46.898;7.660;2022-12-26T10:25:46;6.00;99.90
42841;DHT22;28491;46.898;7.660;2022-12-26T10:28:17;6.10;99.90
42841;DHT22;28491;46.898;7.660;2022-12-26T10:30:47;6.00;99.90
42841;DHT22;28491;46.898;7.660;2022-12-26T10:33:29;6.10;99.90
42841;DHT22;28491;46.898;7.660;2022-12-26T10:35:54;6.10;99.90
42841;DHT22;28491;46.898;7.660;2022-12-26T10:41:08;6.10;99.90
42841;DHT22;28491;46.898;7.660;2022-12-26T10:43:37;6.10;99.90
42841;DHT22;28491;46.898;7.660;2022-12-26T10:48:59;6.20;99.90
42841;DHT22;28491;46.898;7.660;2022-12-26T10:51:25;6.30;99.90
42841;DHT22;28491;46.898;7.660;2022-12-26T10:53:52;6.30;99.90
42841;DHT22;28491;46.898;7.660;2022-12-26T10:56:20;6.30;99.90
42841;DHT22;28491;46.898;7.660;2022-12-26T10:58:58;6.40;99.90
42841;DHT22;28491;46.898;7.660;2022-12-26T11:03:54;6.60;99.90
42841;DHT22;28491;46.898;7.660;2022-12-26T11:06:23;6.70;99.90
42841;DHT22;28491;46.898;7.660;2022-12-26T11:08:50;6.70;99.90
42841;DHT22;28491;46.898;7.660;2022-12-26T11:11:21;6.70;99.90
42841;DHT22;28491;46.898;7.660;2022-12-26T11:13:53;6.80;99.90
42841;DHT22;28491;46.898;7.660;2022-12-26T11:16:29;6.70;99.90
42841;DHT22;28491;46.898;7.660;2022-12-26T11:18:55;6.90;99.90
42841;DHT22;28491;46.898;7.660;2022-12-26T11:21:27;6.90;99.90
42841;DHT22;28491;46.898;7.660;2022-12-26T11:24:15;6.90;99.90
42841;DHT22;28491;46.898;7.660;2022-12-26T11:26:41;6.90;99.90
42841;DHT22;28491;46.898;7.660;2022-12-26T11:31:40;6.90;99.90
42841;DHT22;28491;46.898;7.660;2022-12-26T11:34:09;7.00;99.90
42841;DHT22;28491;46.898;7.660;2022-12-26T11:36:36;7.00;99.90
42841;DHT22;28491;46.898;7.660;2022-12-26T11:39:15;6.90;99.90
42841;DHT22;28491;46.898;7.660;2022-12-26T11:41:43;6.90;99.90
42841;DHT22;28491;46.898;7.660;2022-12-26T11:44:15;6.90;99.90
42841;DHT22;28491;46.898;7.660;2022-12-26T11:49:40;7.00;99.90
42841;DHT22;28491;46.898;7.660;2022-12-26T11:52:30;7.10;99.90
42841;DHT22;28491;46.898;7.660;2022-12-26T11:54:57;7.10;99.90
42841;DHT22;28491;46.898;7.660;2022-12-26T11:57:29;7.20;99.90
42841;DHT22;28491;46.898;7.660;2022-12-26T12:00:14;7.20;99.90
42841;DHT22;28491;46.898;7.660;2022-12-26T12:02:40;7.10;99.90
42841;DHT22;28491;46.898;7.660;2022-12-26T12:05:13;7.00;99.90
42841;DHT22;28491;46.898;7.660;2022-12-26T12:07:56;7.00;99.90
42841;DHT22;28491;46.898;7.660;2022-12-26T12:10:49;7.10;99.90
42841;DHT22;28491;46.898;7.660;2022-12-26T12:19:39;7.20;99.90
42841;DHT22;28491;46.898;7.660;2022-12-26T12:22:23;7.30;99.90
42841;DHT22;28491;46.898;7.660;2022-12-26T12:25:48;7.30;99.90
42841;DHT22;28491;46.898;7.660;2022-12-26T12:31:35;7.30;99.90
42841;DHT22;28491;46.898;7.660;2022-12-26T12:33:47;7.30;99.90
42841;DHT22;28491;46.898;7.660;2022-12-26T12:36:32;7.30;99.90
42841;DHT22;28491;46.898;7.660;2022-12-26T12:39:10;7.50;99.90
42841;DHT22;28491;46.898;7.660;2022-12-26T12:41:58;7.60;99.90
42841;DHT22;28491;46.898;7.660;2022-12-26T12:44:57;7.60;99.90
42841;DHT22;28491;46.898;7.660;2022-12-26T12:50:24;7.70;99.90
42841;DHT22;28491;46.898;7.660;2022-12-26T12:56:01;7.50;99.90
42841;DHT22;28491;46.898;7.660;2022-12-26T12:59:00;7.50;99.90
42841;DHT22;28491;46.898;7.660;2022-12-26T13:01:43;7.60;99.90
42841;DHT22;28491;46.898;7.660;2022-12-26T13:04:18;7.60;99.90
42841;DHT22;28491;46.898;7.660;2022-12-26T13:06:53;7.70;99.90
42841;DHT22;28491;46.898;7.660;2022-12-26T13:09:26;7.60;99.90
42841;DHT22;28491;46.898;7.660;2022-12-26T13:11:57;7.60;99.90
42841;DHT22;28491;46.898;7.660;2022-12-26T13:14:35;7.60;99.90
42841;DHT22;28491;46.898;7.660;2022-12-26T13:17:08;7.60;99.90
42841;DHT22;28491;46.898;7.660;2022-12-26T13:22:52;7.50;99.90
42841;DHT22;28491;46.898;7.660;2022-12-26T13:25:48;7.50;99.90
42841;DHT22;28491;46.898;7.660;2022-12-26T13:28:27;7.50;99.90
42841;DHT22;28491;46.898;7.660;2022-12-26T13:30:55;7.50;99.90
42841;DHT22;28491;46.898;7.660;2022-12-26T13:33:21;7.60;99.90
42841;DHT22;28491;46.898;7.660;2022-12-26T13:35:55;7.80;99.90
42841;DHT22;28491;46.898;7.660;2022-12-26T13:38:23;7.80;99.90
42841;DHT22;28491;46.898;7.660;2022-12-26T13:40:58;7.80;99.90
42841;DHT22;28491;46.898;7.660;2022-12-26T13:44:23;7.70;99.90
42841;DHT22;28491;46.898;7.660;2022-12-26T13:49:40;7.90;99.90
42841;DHT22;28491;46.898;7.660;2022-12-26T14:00:22;8.10;99.90
42841;DHT22;28491;46.898;7.660;2022-12-26T14:09:28;8.10;99.90
42841;DHT22;28491;46.898;7.660;2022-12-26T14:12:06;8.20;99.90
42841;DHT22;28491;46.898;7.660;2022-12-26T14:21:36;8.30;99.90
42841;DHT22;28491;46.898;7.660;2022-12-26T14:24:28;8.30;99.90
42841;DHT22;28491;46.898;7.660;2022-12-26T14:26:45;8.10;99.90
42841;DHT22;28491;46.898;7.660;2022-12-26T14:32:18;8.00;99.90
42841;DHT22;28491;46.898;7.660;2022-12-26T14:37:42;8.00;99.90
42841;DHT22;28491;46.898;7.660;2022-12-26T14:40:27;8.00;99.90
42841;DHT22;28491;46.898;7.660;2022-12-26T14:43:00;8.00;99.90
42841;DHT22;28491;46.898;7.660;2022-12-26T14:45:37;7.80;99.90
42841;DHT22;28491;46.898;7.660;2022-12-26T14:58:52;7.80;99.90
42841;DHT22;28491;46.898;7.660;2022-12-26T15:09:05;8.00;99.90
42841;DHT22;28491;46.898;7.660;2022-12-26T15:11:53;8.00;99.90
42841;DHT22;28491;46.898;7.660;2022-12-26T15:14:37;8.00;99.90
42841;DHT22;28491;46.898;7.660;2022-12-26T15:35:02;7.90;99.90
42841;DHT22;28491;46.898;7.660;2022-12-26T15:40:21;7.80;99.90
42841;DHT22;28491;46.898;7.660;2022-12-26T15:43:17;7.70;99.90
42841;DHT22;28491;46.898;7.660;2022-12-26T15:46:17;7.70;99.90
42841;DHT22;28491;46.898;7.660;2022-12-26T15:49:07;7.70;99.90
42841;DHT22;28491;46.898;7.660;2022-12-26T16:02:35;7.60;99.90
42841;DHT22;28491;46.898;7.660;2022-12-26T16:08:15;7.50;99.90
42841;DHT22;28491;46.898;7.660;2022-12-26T16:10:44;7.40;99.90
42841;DHT22;28491;46.898;7.660;2022-12-26T16:15:50;7.40;99.90
42841;DHT22;28491;46.898;7.660;2022-12-26T16:18:18;7.30;99.90
42841;DHT22;28491;46.898;7.660;2022-12-26T16:20:45;7.40;99.90
42841;DHT22;28491;46.898;7.660;2022-12-26T16:23:34;7.30;99.90
42841;DHT22;28491;46.898;7.660;2022-12-26T16:26:01;7.30;99.90
42841;DHT22;28491;46.898;7.660;2022-12-26T16:28:33;7.30;99.90
42841;DHT22;28491;46.898;7.660;2022-12-26T16:30:59;7.30;99.90
42841;DHT22;28491;46.898;7.660;2022-12-26T16:33:29;7.40;99.90
42841;DHT22;28491;46.898;7.660;2022-12-26T16:35:55;7.30;99.90
42841;DHT22;28491;46.898;7.660;2022-12-26T16:38:26;7.30;99.90
42841;DHT22;28491;46.898;7.660;2022-12-26T16:40:53;7.30;99.90
42841;DHT22;28491;46.898;7.660;2022-12-26T16:43:24;7.40;99.90
42841;DHT22;28491;46.898;7.660;2022-12-26T16:45:52;7.50;99.90
42841;DHT22;28491;46.898;7.660;2022-12-26T16:48:21;7.50;99.90
42841;DHT22;28491;46.898;7.660;2022-12-26T16:50:58;7.50;99.90
42841;DHT22;28491;46.898;7.660;2022-12-26T16:56:25;7.50;99.90
42841;DHT22;28491;46.898;7.660;2022-12-26T16:59:14;7.50;99.90
42841;DHT22;28491;46.898;7.660;2022-12-26T17:01:41;7.50;99.90
42841;DHT22;28491;46.898;7.660;2022-12-26T17:04:17;7.50;99.90
42841;DHT22;28491;46.898;7.660;2022-12-26T17:06:55;7.40;99.90
42841;DHT22;28491;46.898;7.660;2022-12-26T17:09:23;7.40;99.90
42841;DHT22;28491;46.898;7.660;2022-12-26T17:12:00;7.40;99.90
42841;DHT22;28491;46.898;7.660;2022-12-26T17:14:32;7.30;99.90
42841;DHT22;28491;46.898;7.660;2022-12-26T17:19:52;7.20;99.90
42841;DHT22;28491;46.898;7.660;2022-12-26T17:27:42;7.10;99.90
42841;DHT22;28491;46.898;7.660;2022-12-26T17:30:30;7.10;99.90
42841;DHT22;28491;46.898;7.660;2022-12-26T17:33:11;7.20;99.90
42841;DHT22;28491;46.898;7.660;2022-12-26T17:35:39;7.20;99.90
42841;DHT22;28491;46.898;7.660;2022-12-26T17:38:13;7.20;99.90
42841;DHT22;28491;46.898;7.660;2022-12-26T17:40:41;7.10;99.90
42841;DHT22;28491;46.898;7.660;2022-12-26T17:43:20;7.20;99.90
42841;DHT22;28491;46.898;7.660;2022-12-26T17:45:46;7.10;99.90
42841;DHT22;28491;46.898;7.660;2022-12-26T17:48:13;7.10;99.90
42841;DHT22;28491;46.898;7.660;2022-12-26T17:50:41;7.10;99.90
42841;DHT22;28491;46.898;7.660;2022-12-26T17:53:26;7.10;99.90
42841;DHT22;28491;46.898;7.660;2022-12-26T17:55:55;7.10;99.90
42841;DHT22;28491;46.898;7.660;2022-12-26T17:58:21;7.20;99.90
42841;DHT22;28491;46.898;7.660;2022-12-26T18:00:47;7.20;99.90
42841;DHT22;28491;46.898;7.660;2022-12-26T18:03:13;7.20;99.70
42841;DHT22;28491;46.898;7.660;2022-12-26T18:05:39;7.20;99.50
42841;DHT22;28491;46.898;7.660;2022-12-26T18:08:05;7.20;99.10
42841;DHT22;28491;46.898;7.660;2022-12-26T18:10:34;7.20;99.50
42841;DHT22;28491;46.898;7.660;2022-12-26T18:13:01;7.10;99.90
42841;DHT22;28491;46.898;7.660;2022-12-26T18:15:28;7.00;99.90
42841;DHT22;28491;46.898;7.660;2022-12-26T18:17:55;7.00;99.90
42841;DHT22;28491;46.898;7.660;2022-12-26T18:20:26;6.90;99.90
42841;DHT22;28491;46.898;7.660;2022-12-26T18:22:53;6.80;99.90
42841;DHT22;28491;46.898;7.660;2022-12-26T18:25:24;6.80;99.90
42841;DHT22;28491;46.898;7.660;2022-12-26T18:27:51;6.80;99.90
42841;DHT22;28491;46.898;7.660;2022-12-26T18:30:22;6.70;99.90
42841;DHT22;28491;46.898;7.660;2022-12-26T18:32:49;6.70;99.90
42841;DHT22;28491;46.898;7.660;2022-12-26T18:35:16;6.70;99.90
42841;DHT22;28491;46.898;7.660;2022-12-26T18:37:48;6.70;99.90
42841;DHT22;28491;46.898;7.660;2022-12-26T18:40:33;6.70;99.90
42841;DHT22;28491;46.898;7.660;2022-12-26T18:42:59;6.70;99.90
42841;DHT22;28491;46.898;7.660;2022-12-26T18:45:24;6.80;99.90
42841;DHT22;28491;46.898;7.660;2022-12-26T18:47:50;6.80;99.90
42841;DHT22;28491;46.898;7.660;2022-12-26T18:50:16;6.80;99.90
42841;DHT22;28491;46.898;7.660;2022-12-26T18:52:42;6.80;99.90
42841;DHT22;28491;46.898;7.660;2022-12-26T18:55:08;6.80;99.90
42841;DHT22;28491;46.898;7.660;2022-12-26T18:57:34;6.80;99.90
42841;DHT22;28491;46.898;7.660;2022-12-26T19:00:00;6.70;99.90
42841;DHT22;28491;46.898;7.660;2022-12-26T19:02:26;6.70;99.90
42841;DHT22;28491;46.898;7.660;2022-12-26T19:04:51;6.70;99.90
42841;DHT22;28491;46.898;7.660;2022-12-26T19:07:18;6.70;99.90
42841;DHT22;28491;46.898;7.660;2022-12-26T19:09:49;6.60;99.90
42841;DHT22;28491;46.898;7.660;2022-12-26T19:12:16;6.60;99.90
42841;DHT22;28491;46.898;7.660;2022-12-26T19:14:43;6.60;99.90
42841;DHT22;28491;46.898;7.660;2022-12-26T19:17:09;6.60;99.90